Arriba, Colorado
Current Conditions -  °F | °C
As of 11:55 PM on Thursday 30 Oct 2014 (Local Time) from KLIC Reporting Station
Clear Clear  
Wind Chill: 30°   Ceiling: Unl
Heat Index: 30°   Visibility: 10mi
Dew Point: 23°   Wind: 0mph
Humidity: 75%   Direction: NA
Pressure: 30.44"   Gusts: NA
Location:  39.29°N, 103.28°W
Report Text: KLIC 310555Z AUTO 00000KT 10SM CLR M01/M05 A3044 RMK AO2 SLP293 T10111050 10100 21022 51009
Loading
Personal Weather Stations






























Interactive Weather Map
Tropical Storm Tracking
New forecast layout! Learn more

10-Day Weather Forecast

Advertisements
Track Severe Weather on mobile